sensor_id;sensor_type;location;lat;lon;timestamp;temperature;humidity
18932;DHT22;9598;50.954;3.112;2023-12-22T00:00:26;11.30;99.90
18932;DHT22;9598;50.954;3.112;2023-12-22T00:05:28;11.30;99.90
18932;DHT22;9598;50.954;3.112;2023-12-22T00:10:32;11.40;99.90
18932;DHT22;9598;50.954;3.112;2023-12-22T00:15:34;11.30;99.90
18932;DHT22;9598;50.954;3.112;2023-12-22T00:20:36;11.30;99.90
18932;DHT22;9598;50.954;3.112;2023-12-22T00:25:39;11.10;99.90
18932;DHT22;9598;50.954;3.112;2023-12-22T00:30:41;11.00;99.90
18932;DHT22;9598;50.954;3.112;2023-12-22T00:35:43;10.90;99.90
18932;DHT22;9598;50.954;3.112;2023-12-22T00:40:47;10.80;99.90
18932;DHT22;9598;50.954;3.112;2023-12-22T00:45:49;10.70;99.90
18932;DHT22;9598;50.954;3.112;2023-12-22T00:50:51;10.60;99.90
18932;DHT22;9598;50.954;3.112;2023-12-22T00:55:54;10.60;99.90
18932;DHT22;9598;50.954;3.112;2023-12-22T01:00:56;10.60;99.90
18932;DHT22;9598;50.954;3.112;2023-12-22T01:05:58;10.70;99.90
18932;DHT22;9598;50.954;3.112;2023-12-22T01:11:02;10.70;99.90
18932;DHT22;9598;50.954;3.112;2023-12-22T01:16:04;10.80;99.90
18932;DHT22;9598;50.954;3.112;2023-12-22T01:21:07;10.60;99.90
18932;DHT22;9598;50.954;3.112;2023-12-22T01:26:10;10.20;99.90
18932;DHT22;9598;50.954;3.112;2023-12-22T01:31:12;10.10;99.90
18932;DHT22;9598;50.954;3.112;2023-12-22T01:36:14;10.00;99.90
18932;DHT22;9598;50.954;3.112;2023-12-22T01:41:18;10.10;99.90
18932;DHT22;9598;50.954;3.112;2023-12-22T01:46:20;10.10;99.90
18932;DHT22;9598;50.954;3.112;2023-12-22T01:51:23;10.10;99.90
18932;DHT22;9598;50.954;3.112;2023-12-22T01:56:27;10.20;99.90
18932;DHT22;9598;50.954;3.112;2023-12-22T02:01:29;10.30;99.90
18932;DHT22;9598;50.954;3.112;2023-12-22T02:06:33;10.30;99.90
18932;DHT22;9598;50.954;3.112;2023-12-22T02:11:39;10.30;99.90
18932;DHT22;9598;50.954;3.112;2023-12-22T02:16:45;10.40;99.90
18932;DHT22;9598;50.954;3.112;2023-12-22T02:22:00;10.50;99.90
18932;DHT22;9598;50.954;3.112;2023-12-22T02:27:10;10.50;99.90
18932;DHT22;9598;50.954;3.112;2023-12-22T02:32:22;10.60;99.90
18932;DHT22;9598;50.954;3.112;2023-12-22T02:37:27;10.60;99.90
18932;DHT22;9598;50.954;3.112;2023-12-22T02:42:33;10.60;99.90
18932;DHT22;9598;50.954;3.112;2023-12-22T02:47:35;10.60;99.90
18932;DHT22;9598;50.954;3.112;2023-12-22T02:52:37;10.60;99.90
18932;DHT22;9598;50.954;3.112;2023-12-22T02:57:40;10.60;99.90
18932;DHT22;9598;50.954;3.112;2023-12-22T03:02:43;10.60;99.90
18932;DHT22;9598;50.954;3.112;2023-12-22T03:07:45;10.60;99.90
18932;DHT22;9598;50.954;3.112;2023-12-22T03:12:48;10.60;99.90
18932;DHT22;9598;50.954;3.112;2023-12-22T03:17:50;10.60;99.90
18932;DHT22;9598;50.954;3.112;2023-12-22T03:22:52;10.70;99.90
18932;DHT22;9598;50.954;3.112;2023-12-22T03:27:56;10.70;99.90
18932;DHT22;9598;50.954;3.112;2023-12-22T03:32:58;10.70;99.90
18932;DHT22;9598;50.954;3.112;2023-12-22T03:38:00;10.70;99.90
18932;DHT22;9598;50.954;3.112;2023-12-22T03:43:03;10.70;99.90
18932;DHT22;9598;50.954;3.112;2023-12-22T03:48:06;10.70;99.90
18932;DHT22;9598;50.954;3.112;2023-12-22T03:53:08;10.80;99.90
18932;DHT22;9598;50.954;3.112;2023-12-22T03:58:12;10.80;99.90
18932;DHT22;9598;50.954;3.112;2023-12-22T04:03:14;10.80;99.90
18932;DHT22;9598;50.954;3.112;2023-12-22T04:08:16;10.80;99.90
18932;DHT22;9598;50.954;3.112;2023-12-22T04:13:20;10.80;99.90
18932;DHT22;9598;50.954;3.112;2023-12-22T04:18:22;10.80;99.90
18932;DHT22;9598;50.954;3.112;2023-12-22T04:23:24;10.80;99.90
18932;DHT22;9598;50.954;3.112;2023-12-22T04:28:27;10.90;99.90
18932;DHT22;9598;50.954;3.112;2023-12-22T04:33:29;10.80;99.90
18932;DHT22;9598;50.954;3.112;2023-12-22T04:38:31;10.80;99.90
18932;DHT22;9598;50.954;3.112;2023-12-22T04:43:35;10.70;99.90
18932;DHT22;9598;50.954;3.112;2023-12-22T04:48:37;10.70;99.90
18932;DHT22;9598;50.954;3.112;2023-12-22T04:53:39;10.70;99.90
18932;DHT22;9598;50.954;3.112;2023-12-22T04:58:42;10.70;99.90
18932;DHT22;9598;50.954;3.112;2023-12-22T05:03:44;10.70;99.90
18932;DHT22;9598;50.954;3.112;2023-12-22T05:08:47;10.70;99.90
18932;DHT22;9598;50.954;3.112;2023-12-22T05:13:50;10.70;99.90
18932;DHT22;9598;50.954;3.112;2023-12-22T05:18:52;10.70;99.90
18932;DHT22;9598;50.954;3.112;2023-12-22T05:23:54;10.70;99.90
18932;DHT22;9598;50.954;3.112;2023-12-22T05:28:58;10.60;99.90
18932;DHT22;9598;50.954;3.112;2023-12-22T05:34:00;10.70;99.90
18932;DHT22;9598;50.954;3.112;2023-12-22T05:39:02;10.60;99.90
18932;DHT22;9598;50.954;3.112;2023-12-22T05:44:05;10.60;99.90
18932;DHT22;9598;50.954;3.112;2023-12-22T05:49:08;10.70;99.90
18932;DHT22;9598;50.954;3.112;2023-12-22T05:54:10;10.60;99.90
18932;DHT22;9598;50.954;3.112;2023-12-22T05:59:13;10.70;99.90
18932;DHT22;9598;50.954;3.112;2023-12-22T06:04:15;10.70;99.90
18932;DHT22;9598;50.954;3.112;2023-12-22T06:09:17;10.70;99.90
18932;DHT22;9598;50.954;3.112;2023-12-22T06:14:23;10.70;99.90
18932;DHT22;9598;50.954;3.112;2023-12-22T06:19:25;10.70;99.90
18932;DHT22;9598;50.954;3.112;2023-12-22T06:24:29;10.70;99.90
18932;DHT22;9598;50.954;3.112;2023-12-22T06:29:33;10.70;99.90
18932;DHT22;9598;50.954;3.112;2023-12-22T06:34:35;10.60;99.90
18932;DHT22;9598;50.954;3.112;2023-12-22T06:39:38;10.60;99.90
18932;DHT22;9598;50.954;3.112;2023-12-22T06:44:43;10.60;99.90
18932;DHT22;9598;50.954;3.112;2023-12-22T06:49:45;10.60;99.90
18932;DHT22;9598;50.954;3.112;2023-12-22T06:54:47;10.60;99.90
18932;DHT22;9598;50.954;3.112;2023-12-22T06:59:50;10.60;99.90
18932;DHT22;9598;50.954;3.112;2023-12-22T07:05:03;10.60;99.90
18932;DHT22;9598;50.954;3.112;2023-12-22T07:10:07;10.60;99.90
18932;DHT22;9598;50.954;3.112;2023-12-22T07:15:10;10.60;99.90
18932;DHT22;9598;50.954;3.112;2023-12-22T07:20:12;10.60;99.90
18932;DHT22;9598;50.954;3.112;2023-12-22T07:25:15;10.60;99.90
18932;DHT22;9598;50.954;3.112;2023-12-22T07:30:18;10.70;99.90
18932;DHT22;9598;50.954;3.112;2023-12-22T07:35:20;10.70;99.90
18932;DHT22;9598;50.954;3.112;2023-12-22T07:40:23;10.70;99.90
18932;DHT22;9598;50.954;3.112;2023-12-22T07:45:26;10.80;99.90
18932;DHT22;9598;50.954;3.112;2023-12-22T07:50:29;10.80;99.90
18932;DHT22;9598;50.954;3.112;2023-12-22T07:55:31;10.90;99.90
18932;DHT22;9598;50.954;3.112;2023-12-22T08:00:34;11.00;99.90
18932;DHT22;9598;50.954;3.112;2023-12-22T08:05:37;11.00;99.90
18932;DHT22;9598;50.954;3.112;2023-12-22T08:10:39;11.00;99.90
18932;DHT22;9598;50.954;3.112;2023-12-22T08:15:43;11.10;99.90
18932;DHT22;9598;50.954;3.112;2023-12-22T08:20:45;11.10;99.90
18932;DHT22;9598;50.954;3.112;2023-12-22T08:25:50;11.10;99.90
18932;DHT22;9598;50.954;3.112;2023-12-22T08:30:53;11.20;99.90
18932;DHT22;9598;50.954;3.112;2023-12-22T08:35:55;11.20;99.90
18932;DHT22;9598;50.954;3.112;2023-12-22T08:40:57;11.20;99.90
18932;DHT22;9598;50.954;3.112;2023-12-22T08:46:01;11.30;99.90
18932;DHT22;9598;50.954;3.112;2023-12-22T08:51:03;11.30;99.90
18932;DHT22;9598;50.954;3.112;2023-12-22T08:56:06;11.40;99.90
18932;DHT22;9598;50.954;3.112;2023-12-22T09:01:16;11.30;99.90
18932;DHT22;9598;50.954;3.112;2023-12-22T09:06:18;11.40;99.90
18932;DHT22;9598;50.954;3.112;2023-12-22T09:11:20;11.40;99.90
18932;DHT22;9598;50.954;3.112;2023-12-22T09:16:24;11.40;99.90
18932;DHT22;9598;50.954;3.112;2023-12-22T09:21:27;11.40;99.90
18932;DHT22;9598;50.954;3.112;2023-12-22T09:26:30;11.40;99.90
18932;DHT22;9598;50.954;3.112;2023-12-22T09:31:33;11.40;99.90
18932;DHT22;9598;50.954;3.112;2023-12-22T09:36:35;11.40;99.90
18932;DHT22;9598;50.954;3.112;2023-12-22T09:41:37;11.40;99.90
18932;DHT22;9598;50.954;3.112;2023-12-22T09:46:41;11.50;99.90
18932;DHT22;9598;50.954;3.112;2023-12-22T09:51:44;11.50;99.90
18932;DHT22;9598;50.954;3.112;2023-12-22T09:56:47;11.50;99.90
18932;DHT22;9598;50.954;3.112;2023-12-22T10:01:52;11.60;99.90
18932;DHT22;9598;50.954;3.112;2023-12-22T10:06:58;11.60;99.90
18932;DHT22;9598;50.954;3.112;2023-12-22T10:12:01;11.60;99.90
18932;DHT22;9598;50.954;3.112;2023-12-22T10:17:07;11.60;99.90
18932;DHT22;9598;50.954;3.112;2023-12-22T10:22:09;11.60;99.90
18932;DHT22;9598;50.954;3.112;2023-12-22T10:27:11;11.70;99.90
18932;DHT22;9598;50.954;3.112;2023-12-22T10:32:15;11.70;99.90
18932;DHT22;9598;50.954;3.112;2023-12-22T10:37:17;11.70;99.90
18932;DHT22;9598;50.954;3.112;2023-12-22T10:42:19;11.80;99.90
18932;DHT22;9598;50.954;3.112;2023-12-22T10:47:24;11.80;99.90
18932;DHT22;9598;50.954;3.112;2023-12-22T10:52:26;11.80;99.90
18932;DHT22;9598;50.954;3.112;2023-12-22T10:57:28;11.90;99.90
18932;DHT22;9598;50.954;3.112;2023-12-22T11:02:33;11.90;99.90
18932;DHT22;9598;50.954;3.112;2023-12-22T11:07:36;11.90;99.90
18932;DHT22;9598;50.954;3.112;2023-12-22T11:12:39;12.00;99.90
18932;DHT22;9598;50.954;3.112;2023-12-22T11:17:43;12.00;99.90
18932;DHT22;9598;50.954;3.112;2023-12-22T11:22:47;12.10;99.90
18932;DHT22;9598;50.954;3.112;2023-12-22T11:27:52;12.10;99.90
18932;DHT22;9598;50.954;3.112;2023-12-22T11:32:56;12.10;99.90
18932;DHT22;9598;50.954;3.112;2023-12-22T11:38:01;12.10;99.90
18932;DHT22;9598;50.954;3.112;2023-12-22T11:43:03;12.20;99.90
18932;DHT22;9598;50.954;3.112;2023-12-22T11:48:08;12.20;99.90
18932;DHT22;9598;50.954;3.112;2023-12-22T11:53:18;12.20;99.90
18932;DHT22;9598;50.954;3.112;2023-12-22T11:58:36;12.20;99.90
18932;DHT22;9598;50.954;3.112;2023-12-22T12:03:47;12.20;99.90
18932;DHT22;9598;50.954;3.112;2023-12-22T12:08:50;12.30;99.90
18932;DHT22;9598;50.954;3.112;2023-12-22T12:13:52;12.30;99.90
18932;DHT22;9598;50.954;3.112;2023-12-22T12:18:56;12.30;99.90
18932;DHT22;9598;50.954;3.112;2023-12-22T12:24:00;12.30;99.90
18932;DHT22;9598;50.954;3.112;2023-12-22T12:29:03;12.30;99.90
18932;DHT22;9598;50.954;3.112;2023-12-22T12:34:07;12.30;99.90
18932;DHT22;9598;50.954;3.112;2023-12-22T12:39:14;12.30;99.90
18932;DHT22;9598;50.954;3.112;2023-12-22T12:44:17;12.30;99.90
18932;DHT22;9598;50.954;3.112;2023-12-22T12:49:21;12.30;99.90
18932;DHT22;9598;50.954;3.112;2023-12-22T12:54:28;12.30;99.90
18932;DHT22;9598;50.954;3.112;2023-12-22T12:59:30;12.30;99.90
18932;DHT22;9598;50.954;3.112;2023-12-22T13:04:40;12.40;99.90
18932;DHT22;9598;50.954;3.112;2023-12-22T13:09:42;12.40;99.90
18932;DHT22;9598;50.954;3.112;2023-12-22T13:14:45;12.40;99.90
18932;DHT22;9598;50.954;3.112;2023-12-22T13:19:48;12.40;99.90
18932;DHT22;9598;50.954;3.112;2023-12-22T13:24:55;12.40;99.90
18932;DHT22;9598;50.954;3.112;2023-12-22T13:29:58;12.50;99.90
18932;DHT22;9598;50.954;3.112;2023-12-22T13:35:02;12.50;99.90
18932;DHT22;9598;50.954;3.112;2023-12-22T13:40:08;12.50;99.90
18932;DHT22;9598;50.954;3.112;2023-12-22T13:45:11;12.50;99.90
18932;DHT22;9598;50.954;3.112;2023-12-22T13:50:15;12.40;99.90
18932;DHT22;9598;50.954;3.112;2023-12-22T13:55:18;12.40;99.90
18932;DHT22;9598;50.954;3.112;2023-12-22T14:00:27;12.40;99.90
18932;DHT22;9598;50.954;3.112;2023-12-22T14:05:31;12.40;99.90
18932;DHT22;9598;50.954;3.112;2023-12-22T14:10:33;12.40;99.90
18932;DHT22;9598;50.954;3.112;2023-12-22T14:15:35;12.40;99.90
18932;DHT22;9598;50.954;3.112;2023-12-22T14:20:39;12.40;99.90
18932;DHT22;9598;50.954;3.112;2023-12-22T14:25:41;12.40;99.90
18932;DHT22;9598;50.954;3.112;2023-12-22T14:30:43;12.40;99.90
18932;DHT22;9598;50.954;3.112;2023-12-22T14:35:47;12.40;99.90
18932;DHT22;9598;50.954;3.112;2023-12-22T14:40:49;12.40;99.90
18932;DHT22;9598;50.954;3.112;2023-12-22T14:45:51;12.40;99.90
18932;DHT22;9598;50.954;3.112;2023-12-22T14:50:54;12.40;99.90
18932;DHT22;9598;50.954;3.112;2023-12-22T14:55:56;12.40;99.90
18932;DHT22;9598;50.954;3.112;2023-12-22T15:00:59;12.40;99.90
18932;DHT22;9598;50.954;3.112;2023-12-22T15:06:04;12.40;99.90
18932;DHT22;9598;50.954;3.112;2023-12-22T15:11:06;12.50;99.90
18932;DHT22;9598;50.954;3.112;2023-12-22T15:16:09;12.40;99.90
18932;DHT22;9598;50.954;3.112;2023-12-22T15:21:20;12.50;99.90
18932;DHT22;9598;50.954;3.112;2023-12-22T15:26:23;12.50;99.90
18932;DHT22;9598;50.954;3.112;2023-12-22T15:31:26;12.50;99.90
18932;DHT22;9598;50.954;3.112;2023-12-22T15:36:31;12.40;99.90
18932;DHT22;9598;50.954;3.112;2023-12-22T15:41:34;12.50;99.90
18932;DHT22;9598;50.954;3.112;2023-12-22T15:46:36;12.40;99.90
18932;DHT22;9598;50.954;3.112;2023-12-22T15:51:39;12.50;99.90
18932;DHT22;9598;50.954;3.112;2023-12-22T15:56:41;12.40;99.90
18932;DHT22;9598;50.954;3.112;2023-12-22T16:01:44;12.40;99.90
18932;DHT22;9598;50.954;3.112;2023-12-22T16:06:47;12.50;99.90
18932;DHT22;9598;50.954;3.112;2023-12-22T16:11:49;12.40;99.90
18932;DHT22;9598;50.954;3.112;2023-12-22T16:16:54;12.40;99.90
18932;DHT22;9598;50.954;3.112;2023-12-22T16:21:57;12.40;99.90
18932;DHT22;9598;50.954;3.112;2023-12-22T16:27:00;12.40;99.90
18932;DHT22;9598;50.954;3.112;2023-12-22T16:32:02;12.40;99.90
18932;DHT22;9598;50.954;3.112;2023-12-22T16:37:05;12.40;99.90
18932;DHT22;9598;50.954;3.112;2023-12-22T16:42:08;12.40;99.90
18932;DHT22;9598;50.954;3.112;2023-12-22T16:47:10;12.30;99.90
18932;DHT22;9598;50.954;3.112;2023-12-22T16:52:14;12.30;99.90
18932;DHT22;9598;50.954;3.112;2023-12-22T16:57:16;12.30;99.90
18932;DHT22;9598;50.954;3.112;2023-12-22T17:02:18;12.30;99.90
18932;DHT22;9598;50.954;3.112;2023-12-22T17:07:22;12.30;99.90
18932;DHT22;9598;50.954;3.112;2023-12-22T17:12:24;12.30;99.90
18932;DHT22;9598;50.954;3.112;2023-12-22T17:17:26;12.30;99.90
18932;DHT22;9598;50.954;3.112;2023-12-22T17:22:30;12.30;99.90
18932;DHT22;9598;50.954;3.112;2023-12-22T17:27:32;12.30;99.90
18932;DHT22;9598;50.954;3.112;2023-12-22T17:32:34;12.30;99.90
18932;DHT22;9598;50.954;3.112;2023-12-22T17:37:37;12.30;99.90
18932;DHT22;9598;50.954;3.112;2023-12-22T17:42:39;12.20;99.90
18932;DHT22;9598;50.954;3.112;2023-12-22T17:47:43;12.20;99.90
18932;DHT22;9598;50.954;3.112;2023-12-22T17:52:46;12.10;99.90
18932;DHT22;9598;50.954;3.112;2023-12-22T17:57:48;12.10;99.90
18932;DHT22;9598;50.954;3.112;2023-12-22T18:02:50;12.00;99.90
18932;DHT22;9598;50.954;3.112;2023-12-22T18:07:54;12.00;99.90
18932;DHT22;9598;50.954;3.112;2023-12-22T18:12:56;12.00;99.90
18932;DHT22;9598;50.954;3.112;2023-12-22T18:17:58;12.00;99.90
18932;DHT22;9598;50.954;3.112;2023-12-22T18:23:01;12.00;99.90
18932;DHT22;9598;50.954;3.112;2023-12-22T18:28:04;12.00;99.90
18932;DHT22;9598;50.954;3.112;2023-12-22T18:33:06;12.00;99.90
18932;DHT22;9598;50.954;3.112;2023-12-22T18:38:09;12.00;99.90
18932;DHT22;9598;50.954;3.112;2023-12-22T18:43:12;12.00;99.90
18932;DHT22;9598;50.954;3.112;2023-12-22T18:48:14;12.00;99.90
18932;DHT22;9598;50.954;3.112;2023-12-22T18:53:17;12.00;99.90
18932;DHT22;9598;50.954;3.112;2023-12-22T18:58:19;12.00;99.90
18932;DHT22;9598;50.954;3.112;2023-12-22T19:03:22;12.00;99.90
18932;DHT22;9598;50.954;3.112;2023-12-22T19:08:26;12.00;99.90
18932;DHT22;9598;50.954;3.112;2023-12-22T19:13:28;12.00;99.90
18932;DHT22;9598;50.954;3.112;2023-12-22T19:18:30;12.00;99.90
18932;DHT22;9598;50.954;3.112;2023-12-22T19:23:34;12.00;99.90
18932;DHT22;9598;50.954;3.112;2023-12-22T19:28:36;12.00;99.90
18932;DHT22;9598;50.954;3.112;2023-12-22T19:33:38;12.00;99.90
18932;DHT22;9598;50.954;3.112;2023-12-22T19:38:42;12.00;99.90
18932;DHT22;9598;50.954;3.112;2023-12-22T19:43:44;11.90;99.90
18932;DHT22;9598;50.954;3.112;2023-12-22T19:48:46;11.90;99.90
18932;DHT22;9598;50.954;3.112;2023-12-22T19:53:50;11.90;99.90
18932;DHT22;9598;50.954;3.112;2023-12-22T19:58:52;11.90;99.90
18932;DHT22;9598;50.954;3.112;2023-12-22T20:03:54;11.90;99.90
18932;DHT22;9598;50.954;3.112;2023-12-22T20:08:58;11.80;99.90
18932;DHT22;9598;50.954;3.112;2023-12-22T20:14:00;11.80;99.90
18932;DHT22;9598;50.954;3.112;2023-12-22T20:19:02;11.80;99.90
18932;DHT22;9598;50.954;3.112;2023-12-22T20:24:06;11.80;99.90
18932;DHT22;9598;50.954;3.112;2023-12-22T20:29:09;11.80;99.90
18932;DHT22;9598;50.954;3.112;2023-12-22T20:34:11;11.80;99.90
18932;DHT22;9598;50.954;3.112;2023-12-22T20:39:14;11.70;99.90
18932;DHT22;9598;50.954;3.112;2023-12-22T20:44:17;11.70;99.90
18932;DHT22;9598;50.954;3.112;2023-12-22T20:49:19;11.70;99.90
18932;DHT22;9598;50.954;3.112;2023-12-22T20:54:23;11.60;99.90
18932;DHT22;9598;50.954;3.112;2023-12-22T20:59:25;11.50;99.90
18932;DHT22;9598;50.954;3.112;2023-12-22T21:04:27;11.50;99.90
18932;DHT22;9598;50.954;3.112;2023-12-22T21:09:33;11.50;99.90
18932;DHT22;9598;50.954;3.112;2023-12-22T21:14:35;11.50;99.90
18932;DHT22;9598;50.954;3.112;2023-12-22T21:19:38;11.40;99.90
18932;DHT22;9598;50.954;3.112;2023-12-22T21:24:41;11.50;99.90
18932;DHT22;9598;50.954;3.112;2023-12-22T21:29:43;11.40;99.90
18932;DHT22;9598;50.954;3.112;2023-12-22T21:34:45;11.40;99.90
18932;DHT22;9598;50.954;3.112;2023-12-22T21:39:49;11.30;99.90
18932;DHT22;9598;50.954;3.112;2023-12-22T21:44:51;11.30;99.90
18932;DHT22;9598;50.954;3.112;2023-12-22T21:49:53;11.20;99.90
18932;DHT22;9598;50.954;3.112;2023-12-22T21:54:56;11.20;99.90
18932;DHT22;9598;50.954;3.112;2023-12-22T21:59:59;11.20;99.90
18932;DHT22;9598;50.954;3.112;2023-12-22T22:05:01;11.20;99.90
18932;DHT22;9598;50.954;3.112;2023-12-22T22:10:07;11.20;99.90
18932;DHT22;9598;50.954;3.112;2023-12-22T22:15:09;11.20;99.90
18932;DHT22;9598;50.954;3.112;2023-12-22T22:20:11;11.20;99.90
18932;DHT22;9598;50.954;3.112;2023-12-22T22:25:15;11.20;99.90
18932;DHT22;9598;50.954;3.112;2023-12-22T22:30:17;11.20;99.90
18932;DHT22;9598;50.954;3.112;2023-12-22T22:35:19;11.20;99.90
18932;DHT22;9598;50.954;3.112;2023-12-22T22:40:23;11.20;99.90
18932;DHT22;9598;50.954;3.112;2023-12-22T22:45:25;11.20;99.90
18932;DHT22;9598;50.954;3.112;2023-12-22T22:50:27;11.20;99.90
18932;DHT22;9598;50.954;3.112;2023-12-22T22:55:31;11.10;99.90
18932;DHT22;9598;50.954;3.112;2023-12-22T23:00:33;11.10;99.90
18932;DHT22;9598;50.954;3.112;2023-12-22T23:05:36;11.10;99.90
18932;DHT22;9598;50.954;3.112;2023-12-22T23:10:40;11.20;99.90
18932;DHT22;9598;50.954;3.112;2023-12-22T23:15:42;11.20;99.90
18932;DHT22;9598;50.954;3.112;2023-12-22T23:20:45;11.10;99.90
18932;DHT22;9598;50.954;3.112;2023-12-22T23:25:48;11.10;99.90
18932;DHT22;9598;50.954;3.112;2023-12-22T23:30:50;11.10;99.90
18932;DHT22;9598;50.954;3.112;2023-12-22T23:35:53;11.10;99.90
18932;DHT22;9598;50.954;3.112;2023-12-22T23:40:56;11.10;99.90
18932;DHT22;9598;50.954;3.112;2023-12-22T23:45:58;11.10;99.90
18932;DHT22;9598;50.954;3.112;2023-12-22T23:51:00;11.10;99.90
18932;DHT22;9598;50.954;3.112;2023-12-22T23:56:04;11.10;99.90
